Junction City, KS

11:39 AM CDT on October 02, 2014 (GMT -0500)
Indian Ridge | Change Station
CLOSE
Current Station
Personal Weather Station
Location: Junction City, KS
Elevation: 1227 ft
Nearby Weather Stations

Elev 1227 ft 39.02 °N, 96.87 °W | Updated 6 minutes ago

Partly Cloudy
Partly Cloudy
69.1 °F
Feels Like 69.1 °F
N
7.8
Wind Variable Wind from North

Today
High -- | Low -- °F
--% Chance of Precip.
Yesterday
High -- | Low -- °F
Precip. -- in
7:24 AM 7:08 PM
First Quarter, 60% visible
Pressure 29.76 in
Visibility 10.0 miles
Clouds Scattered Clouds 7500 ft
Dew Point 60 °F
Humidity 74%
Rainfall 0.02 in
Snow Depth Not available.
UV 4 out of 12
Pollen .50 out of 12
Air Quality Not available.
Flu Activity Not available.
METAR KFRI 021558Z AUTO 04012KT 10SM SCT075 18/15 A2978 RMK AO2 SLP077 T01820145

More Conditions Fewer Conditions

Pressure 29.76 in
Visibility 10.0 miles
Clouds Scattered Clouds 7500 ft
Dew Point 60 °F
Humidity 74%
Rainfall 0.02 in
Snow Depth Not available.
UV 4 out of 12
Pollen .50 out of 12
Air Quality Not available.
Flu Activity Not available.
METAR KFRI 021558Z AUTO 04012KT 10SM SCT075 18/15 A2978 RMK AO2 SLP077 T01820145

More Conditions Fewer Conditions

10-Day Weather Forecast

Almanac

Astronomy

Oct. 02, 2014 Rise Set
Actual Time 7:24 AM CDT 7:08 PM CDT
Civil Twilight 6:57 AM CDT 7:34 PM CDT
Nautical Twilight 6:26 AM CDT 8:05 PM CDT
Astronomical Twilight 5:55 AM CDT 8:36 PM CDT
Moon 3:13 PM CDT 12:45 AM CDT
Length of Visible Light 12h 37m
Length of Day
11h 44m
Tomorrow will be 2m 32s shorter.
First Quarter, 60% of the Moon is Illuminated
Today
First Quarter
Oct 8
Full
Oct 15
Last Quarter
Oct 23
New
Oct 30
First Quarter

Today's Extremes

State Highs State Lows

Community

WunderPhotos

Upload Photos

1,758,294 photos uploaded!

WunderBlogs® & News

Nearby

Snow Depth

Station Depth Elevation
No new snow has been reported.

Earthquake Activity

City Distance Mag. Time & Date
Harper, Kansas 137 miles 3.3 1:11 AM CDT
2014-10-01
Parsons, Kansas 138 miles 3.0 7:33 PM CDT
2014-09-30
Harper, Kansas 137 miles 2.9 1:49 PM CDT
2014-09-30
Harper, Kansas 136 miles 3.1 10:24 AM CDT
2014-09-30
Minimum magnitude displayed is 2.5.

Coastal Water Temperatures

Place Temperature
No Stations Reporting

Nearby Weather Stations